Time;durP1;ratioP1;P1;durP2;ratioP2;P2;SDS_P1;SDS_P2;PMS_P1;PMS_P2;Temp;Humidity;BMP_temperature;BMP_pressure;BME280_temperature;BME280_humidity;BME280_pressure;Samples;Min_cycle;Max_cycle;Signal;HPM_P1;HPM_P2
2023/01/28 00:00:29;;;;;;;6.53;1.80;;;6.00;99.90;;;;;;5053400;28;20172;-72
2023/01/28 00:02:55;;;;;;;3.17;2.60;;;5.90;99.90;;;;;;5053124;28;20209;-72
2023/01/28 00:05:22;;;;;;;2.83;1.70;;;5.80;99.90;;;;;;5054563;28;20571;-73
2023/01/28 00:07:49;;;;;;;5.40;2.55;;;5.80;99.90;;;;;;5019961;28;20184;-72
2023/01/28 00:10:16;;;;;;;3.45;2.30;;;5.70;99.90;;;;;;5053229;28;20252;-72
2023/01/28 00:12:42;;;;;;;3.17;2.45;;;5.60;99.90;;;;;;5019714;28;20212;-73
2023/01/28 00:15:08;;;;;;;5.00;2.90;;;5.50;99.90;;;;;;5053482;28;20235;-72
2023/01/28 00:17:35;;;;;;;3.22;2.25;;;5.40;99.90;;;;;;5036176;28;20165;-73
2023/01/28 00:20:03;;;;;;;3.35;1.90;;;5.30;99.90;;;;;;5054745;28;20528;-73
2023/01/28 00:22:28;;;;;;;2.85;2.42;;;5.30;99.90;;;;;;5053951;28;20189;-73
2023/01/28 00:24:54;;;;;;;4.00;2.70;;;5.20;99.90;;;;;;5053546;28;20199;-73
2023/01/28 00:27:20;;;;;;;3.40;2.30;;;5.20;99.90;;;;;;5052935;28;20243;-73
2023/01/28 00:29:45;;;;;;;2.70;1.90;;;5.10;99.90;;;;;;5053637;28;20180;-73
2023/01/28 00:32:11;;;;;;;2.97;2.25;;;5.10;99.90;;;;;;5036154;28;20223;-72
2023/01/28 00:34:37;;;;;;;3.00;1.70;;;5.00;99.90;;;;;;5053084;28;20181;-73
2023/01/28 00:37:06;;;;;;;2.75;2.20;;;5.00;99.90;;;;;;5053684;28;20208;-75
2023/01/28 00:39:31;;;;;;;2.87;2.03;;;4.90;99.90;;;;;;5055947;28;20173;-71
2023/01/28 00:41:59;;;;;;;2.65;2.05;;;4.90;99.90;;;;;;5052922;28;20193;-72
2023/01/28 00:44:26;;;;;;;2.40;1.90;;;4.80;99.90;;;;;;5054401;28;20531;-73
2023/01/28 00:46:51;;;;;;;2.65;2.28;;;4.80;99.90;;;;;;5052647;28;20187;-72
2023/01/28 00:49:21;;;;;;;3.10;2.30;;;4.80;99.90;;;;;;5036553;28;20252;-72
2023/01/28 00:51:47;;;;;;;2.53;1.97;;;4.80;99.90;;;;;;5021736;28;20300;-73
2023/01/28 00:54:15;;;;;;;3.53;1.92;;;4.80;99.90;;;;;;5055444;28;20662;-73
2023/01/28 00:56:40;;;;;;;5.10;2.37;;;4.80;99.90;;;;;;5036299;28;20290;-73
2023/01/28 00:59:06;;;;;;;6.87;2.87;;;4.80;99.90;;;;;;5053111;28;21126;-74
2023/01/28 01:01:32;;;;;;;4.73;3.37;;;4.80;99.90;;;;;;5052252;28;20203;-74
2023/01/28 01:04:04;;;;;;;3.17;2.47;;;4.80;99.90;;;;;;5053869;28;20177;-73
2023/01/28 01:06:36;;;;;;;3.88;2.65;;;4.90;99.90;;;;;;5052039;28;20173;-73
2023/01/28 01:09:07;;;;;;;5.72;2.80;;;4.90;99.90;;;;;;5052471;28;20173;-73
2023/01/28 01:11:33;;;;;;;3.22;2.70;;;5.00;99.90;;;;;;5035658;28;20262;-74
2023/01/28 01:14:03;;;;;;;4.13;3.10;;;5.00;99.90;;;;;;5035427;28;20184;-74
2023/01/28 01:16:32;;;;;;;3.40;2.42;;;5.00;99.90;;;;;;5035405;28;20195;-74
2023/01/28 01:18:58;;;;;;;3.80;2.45;;;5.00;99.90;;;;;;5053260;28;20193;-73
2023/01/28 01:21:26;;;;;;;3.60;2.35;;;5.00;99.90;;;;;;5051850;28;20185;-73
2023/01/28 01:23:52;;;;;;;3.88;3.10;;;5.00;99.90;;;;;;5053194;28;20179;-74
2023/01/28 01:26:18;;;;;;;6.80;4.13;;;5.00;99.90;;;;;;5051846;28;20211;-74
2023/01/28 01:28:45;;;;;;;6.10;4.05;;;4.90;99.90;;;;;;5035384;28;20177;-73
2023/01/28 01:31:15;;;;;;;6.15;4.45;;;4.80;99.90;;;;;;5051632;28;20205;-73
2023/01/28 01:33:41;;;;;;;4.13;3.70;;;4.80;99.90;;;;;;5051652;28;20176;-73
2023/01/28 01:36:08;;;;;;;3.90;3.10;;;4.80;99.90;;;;;;5051108;28;20529;-74
2023/01/28 01:38:35;;;;;;;3.60;3.30;;;4.70;99.90;;;;;;5051955;28;20227;-73
2023/01/28 01:41:03;;;;;;;2.90;2.55;;;4.70;99.90;;;;;;5051593;28;20268;-73
2023/01/28 01:44:03;;;;;;;4.43;4.00;;;4.60;99.90;;;;;;5035118;28;20280;-74
2023/01/28 01:46:49;;;;;;;3.38;2.80;;;4.50;99.90;;;;;;5002052;28;20192;-73
2023/01/28 01:49:25;;;;;;;3.92;2.60;;;4.50;99.90;;;;;;5051523;28;20172;-73
2023/01/28 01:52:06;;;;;;;3.72;2.90;;;4.40;99.90;;;;;;5051052;28;20212;-73
2023/01/28 01:54:35;;;;;;;3.70;2.50;;;4.40;99.90;;;;;;5035043;28;20177;-73
2023/01/28 01:57:03;;;;;;;2.67;2.47;;;4.30;99.90;;;;;;5017355;28;20203;-74
2023/01/28 01:59:32;;;;;;;4.45;3.20;;;4.30;99.90;;;;;;5051534;28;20296;-74
2023/01/28 02:02:02;;;;;;;3.00;2.65;;;4.20;99.90;;;;;;5043801;28;20718;-74
2023/01/28 02:04:40;;;;;;;6.53;4.22;;;4.10;99.90;;;;;;5058984;28;20590;-74
2023/01/28 02:07:09;;;;;;;3.78;2.55;;;4.10;99.90;;;;;;5017462;28;20230;-73
2023/01/28 02:10:29;;;;;;;5.45;3.40;;;4.10;99.90;;;;;;5033521;28;20177;-72
2023/01/28 02:12:57;;;;;;;3.40;2.85;;;4.00;99.90;;;;;;5033761;28;20558;-73
2023/01/28 02:15:25;;;;;;;5.32;3.08;;;3.90;99.90;;;;;;5035072;28;20823;-73
2023/01/28 02:17:51;;;;;;;4.30;3.35;;;3.90;99.90;;;;;;5034073;28;20628;-74
2023/01/28 02:20:22;;;;;;;4.85;3.97;;;3.80;99.90;;;;;;5050581;28;20181;-73
2023/01/28 02:23:22;;;;;;;3.83;3.03;;;3.80;99.90;;;;;;5051794;28;20656;-72
2023/01/28 02:26:16;;;;;;;5.25;3.97;;;3.70;99.90;;;;;;5051178;28;20230;-73
2023/01/28 02:29:08;;;;;;;4.00;3.45;;;3.70;99.90;;;;;;5050385;28;20647;-73
2023/01/28 02:31:43;;;;;;;5.15;3.90;;;3.60;99.90;;;;;;5033835;28;20216;-72
2023/01/28 02:34:20;;;;;;;5.25;4.45;;;3.60;99.90;;;;;;5033509;28;20212;-72
2023/01/28 02:37:01;;;;;;;4.95;4.45;;;3.60;99.90;;;;;;5034214;28;20173;-72
2023/01/28 02:39:44;;;;;;;6.68;4.40;;;3.50;99.90;;;;;;5051465;28;20611;-73
2023/01/28 02:42:16;;;;;;;5.97;5.38;;;3.40;99.90;;;;;;5033728;28;20217;-72
2023/01/28 02:44:42;;;;;;;6.63;5.80;;;3.40;99.90;;;;;;5050482;28;20609;-73
2023/01/28 02:49:59;;;;;;;6.85;4.47;;;3.40;99.90;;;;;;5066401;28;20184;-72
2023/01/28 02:55:43;;;;;;;5.90;4.80;;;3.30;99.90;;;;;;5044316;28;20212;-72
2023/01/28 02:58:20;;;;;;;5.68;4.55;;;3.30;99.90;;;;;;5037007;28;20695;-72
2023/01/28 03:00:53;;;;;;;6.78;5.70;;;3.30;99.90;;;;;;5071033;28;20168;-72
2023/01/28 03:03:41;;;;;;;5.57;4.75;;;3.20;99.90;;;;;;5052924;28;20200;-72
2023/01/28 03:06:17;;;;;;;5.70;4.28;;;3.30;99.90;;;;;;5071512;28;20167;-72
2023/01/28 03:37:08;;;;;;;7.63;4.55;;;3.80;99.90;;;;;;5053106;28;20578;-71
2023/01/28 03:39:42;;;;;;;6.13;4.47;;;3.90;99.90;;;;;;5035964;28;20167;-72
2023/01/28 03:42:13;;;;;;;7.80;5.55;;;4.00;99.90;;;;;;5035806;28;20192;-72
2023/01/28 03:45:04;;;;;;;6.60;5.20;;;4.00;99.90;;;;;;5042081;28;20196;-72
2023/01/28 03:47:39;;;;;;;5.35;4.60;;;4.00;99.90;;;;;;5054966;28;20211;-72
2023/01/28 03:50:07;;;;;;;4.82;4.30;;;4.10;99.90;;;;;;5036614;28;20271;-72
2023/01/28 03:52:40;;;;;;;5.88;4.95;;;4.20;99.90;;;;;;5052117;28;20211;-72
2023/01/28 03:55:22;;;;;;;6.68;4.95;;;4.20;99.90;;;;;;5036441;28;20209;-73
2023/01/28 03:57:48;;;;;;;5.70;4.70;;;4.30;99.90;;;;;;5052623;28;20160;-72
2023/01/28 04:00:17;;;;;;;7.75;4.57;;;4.30;99.90;;;;;;5052473;28;20173;-72
2023/01/28 04:02:43;;;;;;;4.95;4.13;;;4.40;99.90;;;;;;5035627;28;20215;-72
2023/01/28 04:05:14;;;;;;;5.60;4.97;;;4.40;99.90;;;;;;5020488;28;20577;-72
2023/01/28 04:07:46;;;;;;;6.32;5.07;;;4.40;99.90;;;;;;5036075;28;20172;-72
2023/01/28 04:10:19;;;;;;;5.05;4.55;;;4.50;99.90;;;;;;5052562;28;20184;-73
2023/01/28 04:12:49;;;;;;;4.60;3.90;;;4.50;99.90;;;;;;5051659;28;20295;-72
2023/01/28 04:15:16;;;;;;;4.05;3.65;;;4.60;99.90;;;;;;5052920;28;20211;-72
2023/01/28 04:17:47;;;;;;;3.78;3.40;;;4.60;99.90;;;;;;5052475;28;20181;-73
2023/01/28 04:20:33;;;;;;;5.45;3.42;;;4.60;99.90;;;;;;5035966;28;20183;-72
2023/01/28 04:23:00;;;;;;;3.25;2.95;;;4.70;99.90;;;;;;5052008;28;20260;-72
2023/01/28 04:25:27;;;;;;;4.00;3.03;;;4.70;99.90;;;;;;5036351;28;20901;-72
2023/01/28 04:27:53;;;;;;;4.50;3.27;;;4.70;99.90;;;;;;5035647;28;20169;-73
2023/01/28 04:30:25;;;;;;;5.47;4.25;;;4.80;99.90;;;;;;5056052;28;20168;-73
2023/01/28 04:33:28;;;;;;;4.75;4.25;;;4.80;99.90;;;;;;4991979;28;20294;-73
2023/01/28 04:36:00;;;;;;;4.68;4.28;;;4.90;99.90;;;;;;4976444;28;20270;-72
2023/01/28 04:38:55;;;;;;;4.45;4.05;;;4.90;99.90;;;;;;5040559;28;20181;-73
2023/01/28 04:41:29;;;;;;;4.10;3.70;;;4.90;99.90;;;;;;5039418;28;20172;-72
2023/01/28 04:44:01;;;;;;;4.22;3.67;;;4.90;99.90;;;;;;5056061;28;20647;-72
2023/01/28 04:46:47;;;;;;;5.05;3.50;;;5.00;99.90;;;;;;5025436;28;20192;-73
2023/01/28 04:49:20;;;;;;;4.50;4.10;;;5.00;99.90;;;;;;5055581;28;20660;-73
2023/01/28 04:52:04;;;;;;;7.25;4.47;;;5.00;99.90;;;;;;5055346;28;20212;-73
2023/01/28 04:54:48;;;;;;;5.70;4.85;;;5.00;99.90;;;;;;5073891;28;20165;-73
2023/01/28 04:57:15;;;;;;;5.03;4.53;;;5.00;99.90;;;;;;5055709;28;20690;-73
2023/01/28 04:59:41;;;;;;;5.90;4.15;;;5.00;99.90;;;;;;5071938;28;20185;-73
2023/01/28 05:02:06;;;;;;;5.47;4.43;;;5.00;99.90;;;;;;5055496;28;20200;-74
2023/01/28 05:04:32;;;;;;;6.60;4.97;;;5.00;99.90;;;;;;5055860;28;20183;-73
2023/01/28 05:06:58;;;;;;;6.03;5.30;;;5.00;99.90;;;;;;5056037;28;20172;-73
2023/01/28 05:09:28;;;;;;;5.05;4.53;;;5.00;99.90;;;;;;5055733;28;20179;-73
2023/01/28 05:11:55;;;;;;;4.47;4.03;;;5.10;99.90;;;;;;5073162;28;20282;-73
2023/01/28 05:14:20;;;;;;;4.30;3.80;;;5.10;99.90;;;;;;5056276;28;20215;-73
2023/01/28 05:17:08;;;;;;;4.32;3.53;;;5.10;99.90;;;;;;5038985;28;20168;-73
2023/01/28 05:19:34;;;;;;;5.27;3.87;;;5.10;99.90;;;;;;5055116;28;20168;-73
2023/01/28 05:22:01;;;;;;;4.60;3.80;;;5.10;99.90;;;;;;5038275;28;20197;-73
2023/01/28 05:24:47;;;;;;;7.22;4.70;;;5.10;99.90;;;;;;5038861;28;20290;-73
2023/01/28 05:27:13;;;;;;;4.70;3.80;;;5.10;99.90;;;;;;5055012;28;20268;-74
2023/01/28 05:29:39;;;;;;;4.10;3.70;;;5.20;99.90;;;;;;5055076;28;20673;-73
2023/01/28 05:32:04;;;;;;;6.10;4.97;;;5.20;99.90;;;;;;5054496;28;20215;-73
2023/01/28 05:34:31;;;;;;;5.13;4.63;;;5.20;99.90;;;;;;5038704;28;20186;-73
2023/01/28 05:37:00;;;;;;;4.70;4.20;;;5.20;99.90;;;;;;5038351;28;20173;-74
2023/01/28 05:39:30;;;;;;;4.35;3.95;;;5.20;99.90;;;;;;5037056;28;20164;-73
2023/01/28 05:41:56;;;;;;;5.28;4.72;;;5.20;99.90;;;;;;5054301;28;20196;-73
2023/01/28 05:44:22;;;;;;;5.25;4.85;;;5.30;99.90;;;;;;5054966;28;20171;-73
2023/01/28 05:47:07;;;;;;;4.93;4.53;;;5.20;99.90;;;;;;5054856;28;20180;-73
2023/01/28 05:49:51;;;;;;;5.60;5.03;;;5.30;99.90;;;;;;5072592;28;20169;-73
2023/01/28 05:52:26;;;;;;;5.80;4.93;;;5.30;99.90;;;;;;5054129;28;20233;-73
2023/01/28 05:54:51;;;;;;;4.73;4.27;;;5.30;99.90;;;;;;5054864;28;20667;-73
2023/01/28 05:57:17;;;;;;;5.33;4.67;;;5.30;99.90;;;;;;5054725;28;20644;-73
2023/01/28 05:59:43;;;;;;;6.50;5.90;;;5.30;99.90;;;;;;5072188;28;20574;-73
2023/01/28 06:02:09;;;;;;;4.13;3.73;;;5.30;99.90;;;;;;5054043;28;20216;-73
2023/01/28 06:04:35;;;;;;;3.83;3.42;;;5.30;99.90;;;;;;5054697;28;20179;-73
2023/01/28 06:07:01;;;;;;;5.07;4.57;;;5.30;99.90;;;;;;5055434;28;20168;-74
2023/01/28 06:09:27;;;;;;;7.72;4.82;;;5.30;99.90;;;;;;5020909;28;20267;-73
2023/01/28 06:11:53;;;;;;;6.33;4.90;;;5.30;99.90;;;;;;5037107;28;20331;-73
2023/01/28 06:14:19;;;;;;;4.57;4.17;;;5.20;99.90;;;;;;5054031;28;20583;-73
2023/01/28 06:17:05;;;;;;;5.45;4.95;;;5.20;99.90;;;;;;5016919;28;20696;-73
2023/01/28 06:19:59;;;;;;;5.35;4.85;;;5.20;99.90;;;;;;5001502;28;20270;-73
2023/01/28 06:22:52;;;;;;;3.53;3.22;;;5.20;99.90;;;;;;4999281;28;20198;-76
2023/01/28 06:25:23;;;;;;;4.32;3.55;;;5.20;99.90;;;;;;5016799;28;20180;-78
2023/01/28 06:27:49;;;;;;;4.70;3.70;;;5.20;99.90;;;;;;5014919;28;20177;-79
2023/01/28 06:30:15;;;;;;;5.63;4.73;;;5.20;99.90;;;;;;5031611;28;21355;-78
2023/01/28 06:32:41;;;;;;;5.07;4.22;;;5.20;99.90;;;;;;5032658;28;20697;-78
2023/01/28 06:35:07;;;;;;;3.90;3.60;;;5.20;99.90;;;;;;5014161;28;20648;-78
2023/01/28 06:37:33;;;;;;;5.03;4.00;;;5.20;99.90;;;;;;5014476;28;20265;-78
2023/01/28 06:39:59;;;;;;;5.00;4.50;;;5.20;99.90;;;;;;5031308;28;20173;-78
2023/01/28 06:42:25;;;;;;;5.10;3.90;;;5.20;99.90;;;;;;5030637;28;20204;-78
2023/01/28 06:44:50;;;;;;;5.60;5.10;;;5.20;99.90;;;;;;5014055;28;20235;-78
2023/01/28 06:47:16;;;;;;;5.60;4.90;;;5.20;99.90;;;;;;5014251;28;20178;-78
2023/01/28 06:49:42;;;;;;;5.43;4.90;;;5.20;99.90;;;;;;5031298;28;20181;-78
2023/01/28 06:52:07;;;;;;;6.97;6.33;;;5.10;99.90;;;;;;5030603;28;20292;-78
2023/01/28 06:54:33;;;;;;;7.40;6.00;;;5.10;99.90;;;;;;5030291;28;20636;-78
2023/01/28 06:56:59;;;;;;;7.20;6.30;;;5.10;99.90;;;;;;5032078;28;20177;-76
2023/01/28 06:59:24;;;;;;;7.33;6.60;;;5.10;99.90;;;;;;5013396;28;20173;-76
2023/01/28 07:01:51;;;;;;;10.48;9.38;;;5.10;99.90;;;;;;5030883;28;20886;-76
2023/01/28 07:04:16;;;;;;;10.10;8.63;;;5.10;99.90;;;;;;5049144;28;20184;-76
2023/01/28 07:06:42;;;;;;;9.70;8.67;;;5.10;99.90;;;;;;5033116;28;20181;-76
2023/01/28 07:09:08;;;;;;;9.37;8.40;;;5.10;99.90;;;;;;5033199;28;20173;-77
2023/01/28 07:11:34;;;;;;;11.80;9.50;;;5.10;99.90;;;;;;5032635;28;20648;-76
2023/01/28 07:14:00;;;;;;;9.30;8.40;;;5.10;99.90;;;;;;5033517;28;20967;-76
2023/01/28 07:16:25;;;;;;;10.82;9.07;;;5.10;99.90;;;;;;5033538;28;20169;-76
2023/01/28 07:18:51;;;;;;;8.63;7.40;;;5.10;99.90;;;;;;5033337;28;20165;-76
2023/01/28 07:21:17;;;;;;;10.57;9.23;;;5.10;99.90;;;;;;5032754;28;20173;-76
2023/01/28 07:23:42;;;;;;;14.23;8.77;;;5.10;99.90;;;;;;5033595;28;20652;-76
2023/01/28 07:26:08;;;;;;;10.97;8.80;;;5.10;99.90;;;;;;5033235;28;20188;-76
2023/01/28 07:28:34;;;;;;;10.00;7.80;;;5.10;99.90;;;;;;5050850;28;20231;-76
2023/01/28 07:30:59;;;;;;;8.50;7.47;;;5.10;99.90;;;;;;5032418;28;20671;-76
2023/01/28 07:33:25;;;;;;;8.47;7.57;;;5.10;99.90;;;;;;5050781;28;20192;-77
2023/01/28 07:35:51;;;;;;;8.10;7.30;;;5.00;99.90;;;;;;5051016;28;20173;-77
2023/01/28 07:38:16;;;;;;;8.00;7.20;;;5.00;99.90;;;;;;5050769;28;20537;-77
2023/01/28 07:40:43;;;;;;;7.10;6.27;;;5.00;99.90;;;;;;5016428;28;20208;-77
2023/01/28 07:43:10;;;;;;;8.40;7.30;;;5.00;99.90;;;;;;5032419;28;20264;-77
2023/01/28 07:45:37;;;;;;;9.57;8.57;;;5.10;99.90;;;;;;5033116;28;20181;-76
2023/01/28 07:48:06;;;;;;;10.40;8.77;;;5.00;99.90;;;;;;5050347;28;20530;-77
2023/01/28 07:50:34;;;;;;;10.88;9.02;;;5.10;99.90;;;;;;5016381;28;20173;-77
2023/01/28 07:53:09;;;;;;;13.15;9.75;;;5.10;99.90;;;;;;5032355;28;20219;-76
2023/01/28 07:55:35;;;;;;;10.00;8.35;;;5.10;99.90;;;;;;5050956;28;20179;-77
2023/01/28 07:58:04;;;;;;;11.52;10.02;;;5.10;99.90;;;;;;5050946;28;20200;-76
2023/01/28 08:00:32;;;;;;;13.00;10.13;;;5.10;99.90;;;;;;5032565;28;20274;-76
2023/01/28 08:03:00;;;;;;;10.40;8.63;;;5.10;99.90;;;;;;5032607;28;20205;-76
2023/01/28 08:05:57;;;;;;;11.30;9.80;;;5.00;99.90;;;;;;5037166;28;20543;-76
2023/01/28 08:08:24;;;;;;;12.13;9.20;;;5.10;99.90;;;;;;5032951;28;20666;-76
2023/01/28 08:10:50;;;;;;;9.60;8.23;;;5.10;99.90;;;;;;5037959;28;20727;-79
2023/01/28 08:13:16;;;;;;;8.45;7.65;;;5.10;99.90;;;;;;5063044;28;20593;-78
2023/01/28 08:15:43;;;;;;;8.90;7.75;;;5.10;99.90;;;;;;5061641;28;20173;-78
2023/01/28 08:18:12;;;;;;;11.40;7.95;;;5.10;99.90;;;;;;5073964;28;20578;-78
2023/01/28 08:20:38;;;;;;;8.90;7.90;;;5.10;99.90;;;;;;5038582;28;20237;-78
2023/01/28 08:23:08;;;;;;;13.23;8.93;;;5.20;99.90;;;;;;5074200;28;20196;-78
2023/01/28 08:25:34;;;;;;;9.32;8.25;;;5.20;99.90;;;;;;5034260;28;20241;-79
2023/01/28 08:28:01;;;;;;;8.38;7.53;;;5.20;99.90;;;;;;5072667;28;20208;-80
2023/01/28 08:30:26;;;;;;;9.35;8.38;;;5.20;99.90;;;;;;5035239;28;20706;-78
2023/01/28 08:32:58;;;;;;;9.30;8.17;;;5.20;99.90;;;;;;5033504;28;20208;-78
2023/01/28 08:35:25;;;;;;;9.13;8.23;;;5.20;99.90;;;;;;5041124;28;20169;-78
2023/01/28 08:37:51;;;;;;;8.45;7.38;;;5.20;99.90;;;;;;5040417;28;20230;-78
2023/01/28 08:40:17;;;;;;;7.40;6.50;;;5.30;99.90;;;;;;5024753;28;20196;-78
2023/01/28 08:42:51;;;;;;;7.70;6.93;;;5.30;99.90;;;;;;5037352;28;20193;-76
2023/01/28 08:45:18;;;;;;;6.30;5.80;;;5.30;99.90;;;;;;5019570;28;20641;-77
2023/01/28 08:48:02;;;;;;;6.78;5.93;;;5.30;99.90;;;;;;5036196;28;20199;-77
2023/01/28 08:50:31;;;;;;;8.32;6.13;;;5.30;99.90;;;;;;5018775;28;20180;-77
2023/01/28 08:53:05;;;;;;;6.75;5.65;;;5.30;99.90;;;;;;5053534;28;20273;-77
2023/01/28 08:55:32;;;;;;;8.65;5.88;;;5.30;99.90;;;;;;5053804;28;20173;-77
2023/01/28 08:58:01;;;;;;;8.35;6.95;;;5.30;99.90;;;;;;5054124;28;20176;-76
2023/01/28 09:00:27;;;;;;;7.25;6.55;;;5.30;99.90;;;;;;5053325;28;20180;-76
2023/01/28 09:02:53;;;;;;;6.43;5.80;;;5.20;99.90;;;;;;5035130;28;20212;-76
2023/01/28 09:05:19;;;;;;;6.00;4.80;;;5.20;99.90;;;;;;5023217;28;20174;-75
2023/01/28 09:07:45;;;;;;;5.60;5.10;;;5.20;99.90;;;;;;5028810;28;20185;-75
2023/01/28 09:10:12;;;;;;;7.45;5.97;;;5.30;99.90;;;;;;5065524;22;20285;-75
2023/01/28 09:12:38;;;;;;;6.53;5.95;;;5.30;99.90;;;;;;5023094;28;20217;-75
2023/01/28 09:15:05;;;;;;;6.10;5.60;;;5.30;99.90;;;;;;5054000;28;20204;-75
2023/01/28 09:17:30;;;;;;;6.05;5.45;;;5.30;99.90;;;;;;5052290;28;20587;-74
2023/01/28 09:19:56;;;;;;;6.53;5.43;;;5.30;99.90;;;;;;5053121;28;20195;-75
2023/01/28 09:22:22;;;;;;;7.07;5.90;;;5.30;99.90;;;;;;5051951;28;20169;-74
2023/01/28 09:24:47;;;;;;;7.80;6.07;;;5.40;99.90;;;;;;5038654;28;20725;-75
2023/01/28 09:27:13;;;;;;;7.20;6.10;;;5.40;99.90;;;;;;5031720;28;20832;-75
2023/01/28 09:29:39;;;;;;;6.80;6.07;;;5.40;99.90;;;;;;5033155;28;20226;-75
2023/01/28 09:32:06;;;;;;;5.23;4.83;;;5.40;99.90;;;;;;5031679;28;20239;-74
2023/01/28 09:34:32;;;;;;;6.22;5.63;;;5.40;99.90;;;;;;5032210;28;20200;-75
2023/01/28 09:36:58;;;;;;;6.30;5.50;;;5.50;99.90;;;;;;5032419;28;20537;-75
2023/01/28 09:39:27;;;;;;;8.20;6.77;;;5.50;99.90;;;;;;5031208;28;20174;-74
2023/01/28 09:42:20;;;;;;;7.55;6.68;;;5.50;99.90;;;;;;5014964;28;20186;-74
2023/01/28 09:45:00;;;;;;;7.90;7.05;;;5.50;99.90;;;;;;5015404;28;20205;-73
2023/01/28 09:47:49;;;;;;;7.40;6.70;;;5.50;99.90;;;;;;5014900;28;20231;-73
2023/01/28 09:50:35;;;;;;;11.85;8.38;;;5.50;99.90;;;;;;5031395;28;20277;-74
2023/01/28 09:53:15;;;;;;;9.70;8.70;;;5.50;99.90;;;;;;5014213;28;20201;-73
2023/01/28 09:55:49;;;;;;;12.85;11.32;;;5.50;99.90;;;;;;5030864;28;20174;-73
2023/01/28 09:58:16;;;;;;;12.18;10.77;;;5.40;99.90;;;;;;5030710;28;20273;-73
2023/01/28 10:00:59;;;;;;;12.20;10.90;;;5.40;99.90;;;;;;5030605;28;20193;-74
2023/01/28 10:03:38;;;;;;;18.90;15.02;;;5.40;99.90;;;;;;5031368;28;20173;-74
2023/01/28 10:06:20;;;;;;;15.90;12.70;;;5.40;99.90;;;;;;5032937;28;20281;-74
2023/01/28 10:08:58;;;;;;;15.45;13.52;;;5.30;99.90;;;;;;5030837;28;20178;-75
2023/01/28 10:11:50;;;;;;;13.27;11.77;;;5.30;99.90;;;;;;5031962;28;20209;-74
2023/01/28 10:14:48;;;;;;;15.57;13.98;;;5.30;99.90;;;;;;5029788;28;20201;-74
2023/01/28 10:17:25;;;;;;;16.42;14.15;;;5.30;99.90;;;;;;5028738;28;20231;-74
2023/01/28 10:20:17;;;;;;;14.15;12.05;;;5.30;99.90;;;;;;5032064;28;20193;-74
2023/01/28 10:22:45;;;;;;;15.27;13.35;;;5.20;99.90;;;;;;5031377;28;20196;-74
2023/01/28 10:25:18;;;;;;;13.73;12.23;;;5.20;99.90;;;;;;5014308;28;20278;-74
2023/01/28 10:27:45;;;;;;;15.88;12.77;;;5.20;99.90;;;;;;5031494;28;20312;-76
2023/01/28 10:30:17;;;;;;;14.30;12.48;;;5.20;99.90;;;;;;5031206;28;20204;-74
2023/01/28 10:33:03;;;;;;;15.57;13.85;;;5.20;99.90;;;;;;5032136;28;20680;-74
2023/01/28 10:35:36;;;;;;;16.65;13.90;;;5.20;99.90;;;;;;5014380;28;20315;-74
2023/01/28 10:38:06;;;;;;;14.77;13.10;;;5.20;99.90;;;;;;5014626;28;20231;-75
2023/01/28 10:40:32;;;;;;;14.00;12.25;;;5.10;99.90;;;;;;5030127;28;20204;-75
2023/01/28 10:42:58;;;;;;;14.20;12.73;;;5.10;99.90;;;;;;5012681;28;20247;-75
2023/01/28 10:45:50;;;;;;;12.33;11.10;;;5.10;99.90;;;;;;5027620;28;20224;-75
2023/01/28 10:48:25;;;;;;;11.25;9.95;;;5.20;99.90;;;;;;5030458;28;20272;-74
2023/01/28 10:50:51;;;;;;;10.63;9.63;;;5.30;99.90;;;;;;5012785;28;20213;-74
2023/01/28 10:53:17;;;;;;;12.15;10.95;;;5.30;99.90;;;;;;5030183;28;20181;-74
2023/01/28 10:55:51;;;;;;;11.87;10.13;;;5.40;99.90;;;;;;5014110;28;20170;-74
2023/01/28 10:58:23;;;;;;;11.25;9.93;;;5.40;99.90;;;;;;5031301;28;20580;-74
2023/01/28 11:01:01;;;;;;;12.98;10.95;;;5.40;99.90;;;;;;5029775;28;20204;-75
2023/01/28 11:03:29;;;;;;;16.38;11.15;;;5.50;99.90;;;;;;5039117;28;20192;-76
2023/01/28 11:05:57;;;;;;;11.70;10.60;;;5.50;99.90;;;;;;5053481;28;20177;-75
2023/01/28 11:08:26;;;;;;;12.95;11.13;;;5.50;99.90;;;;;;5050671;28;20164;-74
2023/01/28 11:10:53;;;;;;;12.30;11.20;;;5.50;99.90;;;;;;5049240;28;20239;-75
2023/01/28 11:13:23;;;;;;;12.05;10.82;;;5.50;99.90;;;;;;5049567;28;20180;-75
2023/01/28 11:16:03;;;;;;;12.35;10.00;;;5.50;99.90;;;;;;5050301;28;20319;-76
2023/01/28 11:18:45;;;;;;;11.90;10.63;;;5.60;99.90;;;;;;5051181;28;20169;-76
2023/01/28 11:21:28;;;;;;;13.30;11.75;;;5.60;99.90;;;;;;5051013;28;20204;-77
2023/01/28 11:24:04;;;;;;;14.75;13.05;;;5.60;99.90;;;;;;5051095;28;20263;-77
2023/01/28 11:26:33;;;;;;;11.50;10.40;;;5.70;99.90;;;;;;5050105;28;20251;-75
2023/01/28 11:29:02;;;;;;;13.88;12.48;;;5.70;99.90;;;;;;5050259;28;20291;-76
2023/01/28 11:31:28;;;;;;;13.02;11.65;;;5.80;99.90;;;;;;5050856;28;20284;-76
2023/01/28 11:33:58;;;;;;;13.80;12.10;;;5.80;99.90;;;;;;5049695;28;20189;-74
2023/01/28 11:36:26;;;;;;;12.77;11.38;;;5.80;99.90;;;;;;5049883;28;20173;-75
2023/01/28 11:39:00;;;;;;;13.23;11.52;;;5.80;99.90;;;;;;5050359;28;20195;-74
2023/01/28 11:41:37;;;;;;;13.48;12.18;;;5.80;99.90;;;;;;5050732;28;20282;-77
2023/01/28 11:44:22;;;;;;;10.98;9.88;;;5.90;99.90;;;;;;5037246;28;20177;-76
2023/01/28 11:47:09;;;;;;;13.70;12.30;;;5.90;99.90;;;;;;5051143;28;20699;-76
2023/01/28 11:50:09;;;;;;;16.23;13.88;;;5.90;99.90;;;;;;5050030;28;20528;-76
2023/01/28 11:52:47;;;;;;;14.45;12.95;;;5.80;99.90;;;;;;5049398;28;20208;-76
2023/01/28 11:55:39;;;;;;;14.25;12.85;;;5.80;99.90;;;;;;5049313;28;20173;-76
2023/01/28 11:58:40;;;;;;;12.57;11.27;;;5.70;99.90;;;;;;5049933;28;20173;-77
2023/01/28 12:01:21;;;;;;;13.07;11.75;;;5.70;99.90;;;;;;5014378;28;20197;-77
2023/01/28 12:03:53;;;;;;;12.38;10.10;;;5.60;99.90;;;;;;5030165;28;20169;-77
2023/01/28 12:06:40;;;;;;;11.68;10.48;;;5.60;99.90;;;;;;5029455;28;20182;-77
2023/01/28 12:09:22;;;;;;;10.40;9.30;;;5.60;99.90;;;;;;5028973;28;20176;-75
2023/01/28 12:12:15;;;;;;;9.40;8.40;;;5.60;99.90;;;;;;5016557;28;20681;-75
2023/01/28 12:14:46;;;;;;;13.00;10.70;;;5.60;99.90;;;;;;5036995;28;20673;-75
2023/01/28 12:17:36;;;;;;;13.98;10.15;;;5.60;99.90;;;;;;5025956;28;20268;-75
2023/01/28 12:20:11;;;;;;;11.40;9.02;;;5.60;99.90;;;;;;5027139;28;20232;-74
2023/01/28 12:22:48;;;;;;;9.43;8.52;;;5.60;99.90;;;;;;5029238;28;20181;-74
2023/01/28 12:25:39;;;;;;;12.35;10.32;;;5.60;99.90;;;;;;5029142;28;20173;-75
2023/01/28 12:28:14;;;;;;;10.05;8.65;;;5.60;99.90;;;;;;5024476;28;20177;-75
2023/01/28 12:31:14;;;;;;;12.45;10.63;;;5.60;99.90;;;;;;5031956;28;20531;-75
2023/01/28 12:34:12;;;;;;;11.82;10.63;;;5.60;99.90;;;;;;5050700;28;20177;-75
2023/01/28 12:37:10;;;;;;;13.68;11.27;;;5.60;99.90;;;;;;5024436;28;20184;-75
2023/01/28 12:40:01;;;;;;;15.80;12.70;;;5.60;99.90;;;;;;5045551;28;20196;-75
2023/01/28 12:43:00;;;;;;;12.10;10.77;;;5.60;99.90;;;;;;5050769;28;20188;-75
2023/01/28 12:45:44;;;;;;;14.70;11.95;;;5.60;99.90;;;;;;5036267;28;20208;-76
2023/01/28 12:48:38;;;;;;;12.80;10.40;;;5.60;99.90;;;;;;5036335;28;20246;-75
2023/01/28 12:51:13;;;;;;;11.50;10.18;;;5.60;99.90;;;;;;5032451;28;20216;-75
2023/01/28 12:54:12;;;;;;;12.10;10.68;;;5.60;99.90;;;;;;5032391;28;20560;-75
2023/01/28 12:56:47;;;;;;;11.55;10.18;;;5.60;99.90;;;;;;5034507;28;20259;-75
2023/01/28 12:59:26;;;;;;;11.40;9.60;;;5.60;99.90;;;;;;5033266;28;20174;-75
2023/01/28 13:02:10;;;;;;;13.77;10.32;;;5.60;99.90;;;;;;5013988;28;20170;-75
2023/01/28 13:05:04;;;;;;;10.75;9.27;;;5.60;99.90;;;;;;4996327;28;20182;-75
2023/01/28 13:07:37;;;;;;;10.02;8.90;;;5.60;99.90;;;;;;5011797;28;20549;-75
2023/01/28 13:10:10;;;;;;;10.75;9.20;;;5.70;99.90;;;;;;5011146;28;20325;-75
2023/01/28 13:12:39;;;;;;;12.40;10.50;;;5.70;99.90;;;;;;5013741;28;20209;-75
2023/01/28 13:15:10;;;;;;;12.05;10.13;;;5.80;99.90;;;;;;5013852;28;20258;-74
2023/01/28 13:17:36;;;;;;;13.45;11.75;;;5.80;99.90;;;;;;5021176;28;20192;-74
2023/01/28 13:20:14;;;;;;;10.43;8.47;;;5.80;99.90;;;;;;5028962;28;20193;-74
2023/01/28 13:22:44;;;;;;;11.13;10.05;;;5.80;99.90;;;;;;5030171;28;20345;-74
2023/01/28 13:25:20;;;;;;;14.52;11.18;;;5.90;99.90;;;;;;5030180;28;20178;-74
2023/01/28 13:28:17;;;;;;;13.68;9.93;;;5.90;99.90;;;;;;5029775;28;20201;-74
2023/01/28 13:30:48;;;;;;;11.98;10.70;;;6.00;99.90;;;;;;5042905;28;20247;-74
2023/01/28 13:33:32;;;;;;;10.18;9.18;;;6.00;99.90;;;;;;5029363;28;20244;-75
2023/01/28 13:36:06;;;;;;;15.43;12.70;;;6.00;99.90;;;;;;5032028;28;20185;-75
2023/01/28 13:38:32;;;;;;;18.27;15.10;;;5.90;99.90;;;;;;5027200;28;20804;-74
2023/01/28 13:41:00;;;;;;;15.38;11.98;;;5.80;99.90;;;;;;5011165;28;20197;-74
2023/01/28 13:43:32;;;;;;;13.95;11.45;;;5.60;99.90;;;;;;5028559;28;20596;-75
2023/01/28 13:46:01;;;;;;;12.88;10.80;;;5.40;99.90;;;;;;5029361;28;20182;-75
2023/01/28 13:48:48;;;;;;;13.23;11.60;;;5.30;99.90;;;;;;5012565;28;20197;-75
2023/01/28 13:51:33;;;;;;;12.45;9.88;;;5.10;99.90;;;;;;5029899;28;20275;-77
2023/01/28 13:54:03;;;;;;;12.95;10.05;;;5.00;99.90;;;;;;5029292;28;20181;-74